Terminal Aerodrome Forecast
Issued by NWS

Home | Current Version | Previous Version | Graphics & Text | Print | Product List | Glossary Off
Versions: 1 2 3 4 5 6 7 8 9 10 11 12 13 14 15 16 17 18

580
FTUS43 KICT 240822 AAA
TAFSLN
TAF AMD
KSLN 240822Z 2408/2506 06007KT 2SM -FZDZ SCT004 OVC006
      TEMPO 2409/2413 OVC004
     FM241800 30010KT P6SM SCT009 BKN015
     FM242000 30012KT P6SM SCT040=

USA.gov is the U.S. government's official web portal to all federal, state and local government web resources and services.